Time;durP1;ratioP1;P1;durP2;ratioP2;P2;SDS_P1;SDS_P2;PMS_P1;PMS_P2;Temp;Humidity;BMP_temperature;BMP_pressure;BME280_temperature;BME280_humidity;BME280_pressure;Samples;Min_cycle;Max_cycle;Signal;HPM_P1;HPM_P2
2022/10/02 00:00:05;;;;;;;8.70;3.70;;;;;;;18.61;83.73;98857.42;25132;1315;3052483;-66
2022/10/02 00:02:54;;;;;;;6.90;3.90;;;;;;;18.84;82.47;98854.00;25114;1315;3055610;-64
2022/10/02 00:05:27;;;;;;;10.60;5.70;;;;;;;18.94;81.33;98855.95;25128;1315;3056655;-63
2022/10/02 00:08:04;;;;;;;14.10;5.50;;;;;;;18.66;82.46;98852.86;25130;1315;3029975;-63
2022/10/02 00:10:55;;;;;;;13.40;6.30;;;;;;;18.41;83.42;98855.06;25068;1315;3056057;-63
2022/10/02 00:13:32;;;;;;;7.70;3.50;;;;;;;18.17;85.47;98850.95;25043;1315;3054048;-64
2022/10/02 00:16:03;;;;;;;6.50;3.50;;;;;;;18.71;83.70;98844.39;25112;1315;3068201;-66
2022/10/02 00:18:33;;;;;;;9.90;4.80;;;;;;;19.00;81.87;98841.92;25060;1315;3026965;-67
2022/10/02 00:21:03;;;;;;;13.30;5.80;;;;;;;18.90;82.05;98845.27;25075;1315;3027609;-62
2022/10/02 00:23:37;;;;;;;13.20;6.60;;;;;;;18.67;82.85;98851.73;24976;1317;3026690;-64
2022/10/02 00:26:28;;;;;;;14.60;7.30;;;;;;;18.46;83.63;98855.65;25089;1315;3026537;-62
2022/10/02 00:29:27;;;;;;;10.90;4.20;;;;;;;18.16;85.93;98856.19;25043;1315;3050680;-67
2022/10/02 00:32:21;;;;;;;10.60;6.10;;;;;;;18.73;84.12;98846.98;25081;1315;3055942;-67
2022/10/02 00:35:02;;;;;;;13.30;6.80;;;;;;;18.81;83.07;98845.25;25068;1315;3053829;-66
2022/10/02 00:37:58;;;;;;;16.60;7.10;;;;;;;18.66;83.69;98845.59;25011;1315;3071688;-67
2022/10/02 00:40:43;;;;;;;19.90;8.20;;;;;;;18.41;84.85;98847.48;25160;1315;3049855;-69
2022/10/02 00:43:50;;;;;;;13.00;6.20;;;;;;;18.19;85.72;98849.20;25087;1315;3053500;-64
2022/10/02 00:46:29;;;;;;;16.90;7.80;;;;;;;18.60;84.45;98841.05;25130;1315;3054983;-64
2022/10/02 00:49:09;;;;;;;16.60;8.10;;;;;;;18.64;83.98;98843.88;25093;1315;3058504;-63
2022/10/02 00:51:50;;;;;;;18.40;9.10;;;;;;;18.67;83.65;98844.02;25096;1315;3050267;-62
2022/10/02 00:54:42;;;;;;;18.80;9.40;;;;;;;18.32;85.21;98853.88;25129;1315;3053437;-62
2022/10/02 00:57:11;;;;;;;15.10;6.70;;;;;;;18.22;86.27;98854.00;25086;1315;3051266;-61
2022/10/02 01:00:05;;;;;;;15.30;7.50;;;;;;;18.63;84.39;98847.35;25095;1315;3026531;-64
2022/10/02 01:02:35;;;;;;;19.80;8.60;;;;;;;18.84;83.29;98843.86;25064;1315;3051586;-63
2022/10/02 01:05:07;;;;;;;19.60;9.80;;;;;;;18.70;83.41;98844.30;25131;1315;3026414;-62
2022/10/02 01:07:38;;;;;;;25.70;10.10;;;;;;;18.35;85.08;98848.81;25112;1315;3067474;-64
2022/10/02 01:10:09;;;;;;;26.60;10.60;;;;;;;18.17;85.91;98847.77;25100;1315;3027029;-62
2022/10/02 01:12:38;;;;;;;16.90;7.60;;;;;;;18.06;86.24;98848.67;25104;1315;3026403;-64
2022/10/02 01:15:15;;;;;;;16.40;8.20;;;;;;;18.38;85.80;98846.99;25082;1318;3026859;-63
2022/10/02 01:17:45;;;;;;;23.90;10.40;;;;;;;18.84;83.21;98841.61;25060;1315;3056967;-64
2022/10/02 01:20:35;;;;;;;26.50;12.10;;;;;;;18.57;83.79;98845.30;25035;1315;3030200;-65
2022/10/02 01:23:14;;;;;;;23.20;11.30;;;;;;;18.32;85.21;98839.68;25088;1315;3055372;-64
2022/10/02 01:25:43;;;;;;;26.40;11.90;;;;;;;18.16;86.01;98834.09;25141;1315;3052275;-65
2022/10/02 01:28:12;;;;;;;25.20;7.60;;;;;;;18.05;86.48;98829.38;25078;1315;3026918;-64
2022/10/02 01:30:43;;;;;;;26.00;9.00;;;;;;;18.51;85.18;98821.92;25096;1314;3055980;-63
2022/10/02 01:33:13;;;;;;;22.50;9.50;;;;;;;18.70;83.68;98810.91;25053;1313;3026318;-64
2022/10/02 01:35:42;;;;;;;25.20;10.10;;;;;;;18.75;83.17;98805.24;25038;1315;3026448;-64
2022/10/02 01:38:13;;;;;;;24.20;10.80;;;;;;;18.55;83.65;98801.51;25126;1315;3055094;-62
2022/10/02 01:40:42;;;;;;;23.70;11.50;;;;;;;18.41;84.40;98796.95;25106;1315;3026414;-64
2022/10/02 01:43:17;;;;;;;14.10;6.40;;;;;;;18.24;85.34;98796.05;25066;1315;3027479;-64
2022/10/02 01:46:08;;;;;;;21.30;8.80;;;;;;;18.56;84.81;98791.66;25053;1313;3053291;-65
2022/10/02 01:48:40;;;;;;;20.00;9.90;;;;;;;18.74;83.41;98788.33;25088;1315;3051193;-64
2022/10/02 01:51:14;;;;;;;25.10;10.90;;;;;;;18.70;83.84;98786.85;25088;1315;3026897;-65
2022/10/02 01:53:47;;;;;;;20.40;10.70;;;;;;;18.49;84.74;98785.21;25064;1315;3050863;-62
2022/10/02 01:56:27;;;;;;;20.20;10.80;;;;;;;18.24;85.83;98778.60;25054;1315;3051678;-65
2022/10/02 01:59:27;;;;;;;17.10;7.50;;;;;;;18.13;86.75;98779.98;25073;1315;3054266;-61
2022/10/02 02:02:08;;;;;;;18.90;8.70;;;;;;;18.66;84.41;98768.74;25098;1315;3058949;-65
2022/10/02 02:05:02;;;;;;;17.70;9.90;;;;;;;18.86;83.28;98760.48;25121;1315;3052527;-65
2022/10/02 02:07:49;;;;;;;22.40;11.70;;;;;;;18.67;83.84;98755.23;25052;1315;3055833;-64
2022/10/02 02:10:23;;;;;;;20.40;11.10;;;;;;;18.25;86.11;98758.04;25069;1315;3051698;-63
2022/10/02 02:12:59;;;;;;;17.00;7.50;;;;;;;18.02;87.39;98751.14;25105;1315;3069417;-64
2022/10/02 02:15:41;;;;;;;19.10;8.70;;;;;;;18.46;86.13;98735.80;25092;1313;3049794;-62
2022/10/02 02:18:40;;;;;;;15.90;8.20;;;;;;;18.54;84.90;98729.81;25144;1315;3052010;-62
2022/10/02 02:21:14;;;;;;;16.40;9.70;;;;;;;18.42;85.71;98721.34;25048;1315;3055417;-66
2022/10/02 02:23:43;;;;;;;20.70;10.40;;;;;;;18.21;86.52;98720.79;25081;1315;3058326;-63
2022/10/02 02:26:12;;;;;;;13.40;5.20;;;;;;;18.08;87.85;98722.41;24997;1314;3026538;-65
2022/10/02 02:28:46;;;;;;;11.30;7.30;;;;;;;18.43;86.88;98715.67;24996;1316;3054903;-65
2022/10/02 02:31:17;;;;;;;10.00;6.20;;;;;;;18.67;85.34;98708.39;24990;1315;3026540;-63
2022/10/02 02:33:53;;;;;;;13.50;8.00;;;;;;;18.58;85.56;98700.67;25069;1315;3025993;-64
2022/10/02 02:36:23;;;;;;;12.50;8.40;;;;;;;18.46;86.23;98692.69;25144;1315;3052690;-61
2022/10/02 02:38:59;;;;;;;14.00;7.80;;;;;;;18.24;87.22;98690.90;25090;1315;3026771;-67
2022/10/02 02:41:32;;;;;;;10.60;5.10;;;;;;;17.99;88.88;98689.84;25082;1315;3068134;-65
2022/10/02 02:44:08;;;;;;;10.40;6.00;;;;;;;18.34;88.48;98681.69;25001;1315;3026074;-66
2022/10/02 02:49:47;;;;;;;13.00;7.20;;;;;;;18.53;86.43;98663.98;25039;1315;3055235;-64
2022/10/02 02:52:20;;;;;;;11.40;7.50;;;;;;;18.32;87.59;98663.89;25106;1315;3056713;-62
2022/10/02 02:54:59;;;;;;;7.90;4.30;;;;;;;18.33;87.90;98655.73;25059;1314;3026675;-63
2022/10/02 02:57:32;;;;;;;10.80;6.00;;;;;;;18.64;86.74;98652.45;25083;1315;3055589;-63
2022/10/02 03:00:01;;;;;;;11.70;7.10;;;;;;;18.86;85.38;98656.30;25037;1315;3027318;-65
2022/10/02 03:02:30;;;;;;;12.00;7.50;;;;;;;18.78;85.92;98671.92;25023;1316;3026490;-62
2022/10/02 03:04:59;;;;;;;12.20;8.10;;;;;;;18.47;87.34;98678.96;25002;1318;3026885;-63
2022/10/02 03:07:28;;;;;;;12.50;8.00;;;;;;;18.30;88.35;98668.27;25105;1315;3053296;-63
2022/10/02 03:10:33;;;;;;;9.70;4.70;;;;;;;18.20;89.02;98660.85;25017;1315;3027297;-65
2022/10/02 03:13:43;;;;;;;12.80;6.70;;;;;;;19.06;85.95;98646.23;25077;1315;3051670;-63
2022/10/02 03:16:31;;;;;;;9.60;6.50;;;;;;;19.17;84.08;98644.63;25103;1315;3054758;-63
2022/10/02 03:19:07;;;;;;;12.20;7.40;;;;;;;18.86;85.08;98640.95;25043;1315;3055170;-62
2022/10/02 03:22:00;;;;;;;12.90;8.00;;;;;;;18.68;85.97;98637.02;25120;1315;3057074;-62
2022/10/02 03:24:39;;;;;;;8.20;4.70;;;;;;;18.29;88.03;98640.27;24973;1318;3052342;-63
2022/10/02 03:27:13;;;;;;;9.80;6.40;;;;;;;18.87;86.08;98637.44;25100;1316;3055246;-64
2022/10/02 03:29:48;;;;;;;10.70;6.30;;;;;;;19.10;84.12;98631.06;25067;1315;3054087;-67
2022/10/02 03:32:17;;;;;;;14.50;7.80;;;;;;;18.94;84.40;98626.91;25059;1317;3071789;-65
2022/10/02 03:34:47;;;;;;;14.30;7.70;;;;;;;18.65;85.32;98626.88;25056;1316;3026844;-62
2022/10/02 03:37:16;;;;;;;15.70;7.40;;;;;;;18.47;86.38;98622.25;25098;1315;3053584;-68
2022/10/02 03:39:46;;;;;;;8.20;3.40;;;;;;;18.33;86.59;98622.83;24998;1315;3028865;-63
2022/10/02 03:42:19;;;;;;;10.00;5.70;;;;;;;18.79;85.40;98614.37;25077;1315;3053768;-66
2022/10/02 03:44:48;;;;;;;14.30;5.20;;;;;;;18.93;83.49;98613.95;25109;1315;3027076;-63
2022/10/02 03:47:17;;;;;;;15.70;6.80;;;;;;;18.97;83.00;98611.39;25042;1315;3026378;-63
2022/10/02 03:49:46;;;;;;;11.50;6.00;;;;;;;18.61;84.10;98617.80;25087;1315;3054552;-66
2022/10/02 03:52:19;;;;;;;12.20;6.70;;;;;;;18.52;84.10;98619.04;25103;1315;3026592;-62
2022/10/02 03:54:53;;;;;;;8.00;3.80;;;;;;;18.33;85.28;98623.56;25040;1315;3051705;-63
2022/10/02 03:57:23;;;;;;;9.50;5.20;;;;;;;18.74;83.48;98613.46;25079;1315;3030321;-62
2022/10/02 03:59:52;;;;;;;15.10;5.60;;;;;;;19.14;81.63;98605.63;25079;1315;3027044;-62
2022/10/02 04:02:42;;;;;;;9.60;5.10;;;;;;;19.04;80.93;98601.91;25030;1315;3028065;-61
2022/10/02 04:05:18;;;;;;;11.80;6.20;;;;;;;18.95;80.91;98596.87;25013;1315;3053166;-62
2022/10/02 04:07:50;;;;;;;12.60;6.30;;;;;;;18.57;82.09;98595.66;25074;1315;3054462;-64
2022/10/02 04:10:28;;;;;;;7.00;3.80;;;;;;;18.30;83.57;98596.67;25083;1315;3026840;-62
2022/10/02 04:13:02;;;;;;;9.40;5.50;;;;;;;18.85;81.52;98593.66;25000;1315;3050693;-63
2022/10/02 04:15:42;;;;;;;13.30;4.60;;;;;;;19.20;79.26;98589.67;25068;1314;3052159;-64
2022/10/02 04:18:19;;;;;;;9.00;5.00;;;;;;;19.39;78.54;98592.15;25080;1315;3055749;-63
2022/10/02 04:20:57;;;;;;;14.80;4.70;;;;;;;19.30;78.01;98590.68;25089;1315;3055872;-60
2022/10/02 04:23:34;;;;;;;12.00;6.10;;;;;;;19.03;78.85;98601.67;25057;1315;3049680;-63
2022/10/02 04:26:20;;;;;;;9.70;5.90;;;;;;;18.82;79.37;98609.63;25022;1315;3055808;-62
2022/10/02 04:29:15;;;;;;;8.80;3.40;;;;;;;18.64;80.08;98619.07;25023;1315;3053643;-63
2022/10/02 04:31:50;;;;;;;11.70;4.60;;;;;;;19.37;77.63;98605.40;25081;1315;3068148;-67
2022/10/02 04:34:19;;;;;;;12.20;4.80;;;;;;;19.77;75.70;98601.14;25008;1318;3049372;-67
2022/10/02 04:37:21;;;;;;;13.10;5.80;;;;;;;19.67;75.61;98601.85;25112;1315;3026388;-61
2022/10/02 04:40:06;;;;;;;12.90;6.00;;;;;;;19.35;76.21;98588.98;25083;1313;3069163;-63
2022/10/02 04:42:42;;;;;;;15.40;6.60;;;;;;;19.21;76.59;98594.34;25060;1315;3053138;-66
2022/10/02 04:45:49;;;;;;;15.60;8.60;;;;;;;19.02;76.88;98598.36;25048;1315;3055540;-66
2022/10/02 04:48:27;;;;;;;12.60;4.40;;;;;;;18.88;78.07;98596.31;25085;1314;3055654;-64
2022/10/02 04:51:05;;;;;;;14.80;6.30;;;;;;;19.42;75.46;98582.62;25112;1315;3055781;-63
2022/10/02 04:54:08;;;;;;;14.00;6.00;;;;;;;19.73;73.38;98575.30;25053;1315;3049967;-64
2022/10/02 04:57:12;;;;;;;19.30;7.30;;;;;;;19.71;72.97;98571.99;25102;1315;3056091;-62
2022/10/02 04:59:55;;;;;;;18.60;7.90;;;;;;;19.31;74.05;98576.52;25134;1315;3054181;-64
2022/10/02 05:02:34;;;;;;;18.50;8.30;;;;;;;19.06;74.82;98574.36;25093;1315;3068675;-64
2022/10/02 05:05:36;;;;;;;15.10;7.80;;;;;;;18.74;75.65;98582.02;25014;1316;3051384;-65
2022/10/02 05:08:15;;;;;;;18.70;7.90;;;;;;;18.54;76.29;98578.50;25068;1315;3052890;-61
2022/10/02 05:10:56;;;;;;;12.90;5.30;;;;;;;18.45;76.76;98578.50;25138;1315;3052465;-64
2022/10/02 05:13:29;;;;;;;14.70;6.30;;;;;;;18.94;74.93;98573.46;25086;1315;3058531;-64
2022/10/02 05:16:07;;;;;;;18.60;6.50;;;;;;;19.19;73.52;98567.28;25081;1315;3026459;-64
2022/10/02 05:19:14;;;;;;;13.90;6.30;;;;;;;19.14;73.31;98568.49;25048;1315;3055221;-65
2022/10/02 05:22:07;;;;;;;18.10;6.30;;;;;;;18.83;73.67;98565.48;25096;1315;3054433;-62
2022/10/02 05:24:43;;;;;;;12.20;5.90;;;;;;;18.79;73.57;98558.44;25075;1315;3071389;-64
2022/10/02 05:27:31;;;;;;;14.50;5.80;;;;;;;18.55;73.42;98548.31;25071;1315;3049312;-66
2022/10/02 05:30:04;;;;;;;11.60;5.60;;;;;;;18.37;73.44;98531.83;25082;1315;3055334;-66
2022/10/02 05:32:53;;;;;;;16.10;5.10;;;;;;;18.35;73.50;98523.16;25015;1315;3055114;-62
2022/10/02 05:35:50;;;;;;;6.10;2.90;;;;;;;18.44;73.63;98519.36;25080;1315;3060144;-64
2022/10/02 05:38:36;;;;;;;8.90;3.80;;;;;;;19.01;71.30;98506.89;25048;1315;3052369;-65
2022/10/02 05:41:25;;;;;;;14.90;3.70;;;;;;;19.33;69.34;98499.13;25087;1315;3055163;-66
2022/10/02 05:44:01;;;;;;;10.80;4.00;;;;;;;19.34;69.69;98502.71;25097;1315;3054205;-64
2022/10/02 05:46:44;;;;;;;9.60;4.50;;;;;;;19.25;69.96;98492.55;25102;1315;3071684;-61
2022/10/02 05:49:26;;;;;;;10.80;4.80;;;;;;;18.97;70.89;98490.88;25059;1315;3052181;-63
2022/10/02 05:51:58;;;;;;;15.00;4.90;;;;;;;18.90;71.25;98487.50;25107;1315;3052331;-64
2022/10/02 05:54:48;;;;;;;18.50;4.90;;;;;;;18.75;71.84;98487.01;25081;1315;3026179;-64
2022/10/02 05:57:31;;;;;;;11.20;4.40;;;;;;;18.63;72.00;98486.23;25092;1315;3056881;-62
2022/10/02 06:00:12;;;;;;;6.00;3.00;;;;;;;18.62;72.79;98481.25;25093;1315;3049563;-65
2022/10/02 06:02:47;;;;;;;7.60;3.60;;;;;;;19.36;70.34;98471.92;25034;1315;3055192;-62
2022/10/02 06:05:22;;;;;;;9.30;3.80;;;;;;;19.55;69.08;98468.61;25148;1314;3051239;-68
2022/10/02 06:07:54;;;;;;;7.50;3.80;;;;;;;19.53;69.33;98472.50;25074;1315;3071311;-66
2022/10/02 06:10:29;;;;;;;8.20;4.00;;;;;;;19.46;69.44;98460.20;25063;1315;3026324;-62
2022/10/02 06:13:12;;;;;;;7.40;3.90;;;;;;;19.24;70.05;98460.65;25075;1315;3052109;-66
2022/10/02 06:15:50;;;;;;;13.90;4.60;;;;;;;19.10;70.82;98448.11;25121;1315;3053889;-62
2022/10/02 06:18:21;;;;;;;10.90;4.60;;;;;;;18.92;71.77;98451.35;24971;1315;3059032;-65
2022/10/02 06:20:55;;;;;;;7.80;4.30;;;;;;;18.80;72.41;98446.39;25115;1315;3027169;-65
2022/10/02 06:23:37;;;;;;;12.80;5.20;;;;;;;18.89;72.00;98439.55;25056;1314;3052114;-64
2022/10/02 06:26:08;;;;;;;9.30;3.00;;;;;;;18.82;72.70;98429.73;25105;1314;3051145;-65
2022/10/02 06:28:41;;;;;;;10.50;3.30;;;;;;;19.44;71.53;98422.56;25116;1312;3026936;-61
2022/10/02 06:31:25;;;;;;;6.30;3.20;;;;;;;20.08;68.90;98413.66;25080;1315;3048424;-63
2022/10/02 06:33:54;;;;;;;5.80;3.50;;;;;;;20.04;68.60;98404.39;25009;1315;3052490;-63
2022/10/02 06:36:46;;;;;;;10.80;4.30;;;;;;;19.77;69.50;98406.95;25025;1315;3026706;-62
2022/10/02 06:39:52;;;;;;;10.70;4.00;;;;;;;19.68;69.81;98407.40;25031;1315;3049175;-65
2022/10/02 06:42:36;;;;;;;7.60;3.80;;;;;;;19.56;70.15;98402.20;25102;1315;3054663;-65
2022/10/02 06:45:05;;;;;;;;;;;;;;;19.42;70.89;98403.84;25121;1315;3055033;-63
2022/10/02 06:48:09;;;;;;;11.20;4.50;;;;;;;19.08;71.90;98399.67;25073;1315;3026914;-63
2022/10/02 06:50:55;;;;;;;11.70;5.00;;;;;;;18.92;72.78;98399.33;25015;1316;3055255;-63
2022/10/02 06:53:52;;;;;;;6.70;2.60;;;;;;;18.88;73.13;98391.30;25086;1315;3055254;-63
2022/10/02 06:56:28;;;;;;;11.00;3.60;;;;;;;19.66;70.86;98379.41;25082;1315;3056361;-67
2022/10/02 06:59:12;;;;;;;6.20;3.30;;;;;;;20.10;69.35;98374.50;25122;1316;3048749;-66
2022/10/02 07:02:18;;;;;;;10.10;4.20;;;;;;;20.06;68.87;98365.98;25174;1313;3052699;-65
2022/10/02 07:04:54;;;;;;;9.00;4.00;;;;;;;19.62;70.41;98368.13;25108;1315;3051343;-64
2022/10/02 07:07:53;;;;;;;10.20;4.50;;;;;;;19.36;72.01;98374.23;25019;1316;3069267;-65
2022/10/02 07:10:33;;;;;;;7.60;4.30;;;;;;;19.28;72.88;98386.42;25060;1315;3049052;-61
2022/10/02 07:13:07;;;;;;;9.60;4.80;;;;;;;19.27;72.70;98385.08;25134;1315;3052237;-65
2022/10/02 07:15:45;;;;;;;6.70;2.50;;;;;;;19.15;73.52;98386.38;25088;1315;3054321;-64
2022/10/02 07:18:57;;;;;;;10.20;4.00;;;;;;;19.67;72.22;98384.88;25042;1314;3058581;-65
2022/10/02 07:21:50;;;;;;;9.50;3.30;;;;;;;19.87;70.99;98386.39;24955;1315;3052240;-68
2022/10/02 07:24:24;;;;;;;10.50;4.10;;;;;;;19.90;71.18;98380.78;25049;1315;3055901;-65
2022/10/02 07:26:59;;;;;;;13.50;4.50;;;;;;;19.71;71.31;98380.77;25189;1315;3054021;-64
2022/10/02 07:29:49;;;;;;;13.20;4.80;;;;;;;19.50;72.48;98383.52;25081;1315;3069608;-64
2022/10/02 07:32:24;;;;;;;7.30;4.40;;;;;;;19.29;72.91;98375.62;25182;1315;3049883;-62
2022/10/02 07:35:31;;;;;;;9.00;4.50;;;;;;;19.26;72.87;98368.92;25144;1314;3055065;-65
2022/10/02 07:38:12;;;;;;;8.20;4.10;;;;;;;19.04;73.38;98373.67;25079;1315;3053624;-62
2022/10/02 07:41:11;;;;;;;7.10;2.70;;;;;;;19.05;73.67;98367.05;25162;1315;3059036;-64
2022/10/02 07:44:09;;;;;;;6.80;3.40;;;;;;;19.68;71.36;98360.14;24275;1315;4288900;-64
2022/10/02 07:46:53;;;;;;;8.40;4.40;;;;;;;19.90;70.25;98348.40;25105;1315;3055337;-65
2022/10/02 07:49:22;;;;;;;;;;;;;;;19.74;70.69;98337.69;25105;1315;3057050;-62
2022/10/02 07:52:01;;;;;;;14.10;4.90;;;;;;;19.55;71.51;98337.86;25032;1315;3026944;-64
2022/10/02 07:54:39;;;;;;;11.90;4.50;;;;;;;19.40;72.72;98337.81;25189;1315;3053568;-64
2022/10/02 07:57:36;;;;;;;8.90;4.60;;;;;;;19.27;73.62;98326.05;25129;1315;3056063;-64
2022/10/02 08:00:11;;;;;;;11.10;4.30;;;;;;;19.19;74.94;98322.17;25038;1315;3053993;-68
2022/10/02 08:02:51;;;;;;;5.60;2.90;;;;;;;19.02;75.47;98312.77;25117;1315;3053883;-65
2022/10/02 08:05:23;;;;;;;8.10;2.60;;;;;;;19.37;74.57;98309.03;25120;1315;3051150;-68
2022/10/02 08:07:55;;;;;;;6.10;3.60;;;;;;;19.83;73.24;98300.39;25076;1316;3026508;-66
2022/10/02 08:10:30;;;;;;;11.40;3.60;;;;;;;19.63;74.04;98296.81;25149;1315;3048328;-64
2022/10/02 08:13:20;;;;;;;6.80;3.50;;;;;;;19.44;74.87;98285.02;25196;1315;3054705;-64
2022/10/02 08:15:54;;;;;;;5.70;3.80;;;;;;;19.18;76.08;98272.04;25025;1315;3054753;-65
2022/10/02 08:18:41;;;;;;;8.10;3.60;;;;;;;18.99;77.38;98269.05;25139;1315;3055976;-64
2022/10/02 08:21:17;;;;;;;5.50;2.20;;;;;;;18.87;78.42;98275.71;25103;1315;3050514;-65
2022/10/02 08:24:00;;;;;;;5.40;3.10;;;;;;;19.36;76.89;98274.02;25132;1315;3054105;-65
2022/10/02 08:26:45;;;;;;;9.50;2.80;;;;;;;19.54;76.06;98271.24;25163;1315;3050823;-66
2022/10/02 08:29:18;;;;;;;6.20;3.50;;;;;;;19.30;77.44;98268.98;25170;1315;3069356;-67
2022/10/02 08:31:50;;;;;;;8.20;4.30;;;;;;;19.20;78.27;98268.30;25097;1316;3048761;-62
2022/10/02 08:34:20;;;;;;;9.30;4.90;;;;;;;18.96;79.57;98263.02;25076;1315;3026793;-65
2022/10/02 08:37:28;;;;;;;11.50;5.50;;;;;;;18.78;80.35;98260.91;25130;1315;3026922;-65
2022/10/02 08:40:07;;;;;;;8.80;3.90;;;;;;;18.78;81.16;98258.98;25062;1315;3057349;-64
2022/10/02 08:42:58;;;;;;;8.00;3.40;;;;;;;19.26;79.41;98246.98;25062;1318;3050189;-68
2022/10/02 08:45:55;;;;;;;6.50;3.60;;;;;;;19.42;78.38;98244.38;25136;1313;3055691;-66
2022/10/02 08:48:33;;;;;;;8.90;4.10;;;;;;;19.24;79.74;98246.33;25131;1314;3054368;-64
2022/10/02 08:51:08;;;;;;;7.50;4.20;;;;;;;18.93;81.13;98252.14;25077;1314;3071603;-66
2022/10/02 08:53:37;;;;;;;6.20;4.20;;;;;;;18.60;83.32;98257.33;25215;1314;3049571;-69
2022/10/02 08:56:48;;;;;;;4.90;2.30;;;;;;;18.13;86.71;98257.19;25125;1315;3026569;-65
2022/10/02 08:59:24;;;;;;;5.70;3.20;;;;;;;18.60;85.76;98258.55;24917;1323;3071474;-67
2022/10/02 09:02:26;;;;;;;5.60;3.20;;;;;;;19.11;83.22;98238.98;25085;1315;3048927;-65
2022/10/02 09:05:05;;;;;;;8.50;3.90;;;;;;;18.69;84.45;98241.73;25101;1315;3051130;-68
2022/10/02 09:08:11;;;;;;;7.30;3.70;;;;;;;18.34;86.59;98244.79;31707;1312;3028421;-64
2022/10/02 09:11:18;;;;;;;6.00;3.50;;;;;;;18.37;86.85;98244.80;25071;1312;3051308;-67
2022/10/02 09:14:09;;;;;;;5.40;3.00;;;;;;;18.57;86.01;98234.08;25128;1312;3055404;-65
2022/10/02 09:17:13;;;;;;;5.30;3.70;;;;;;;18.34;87.31;98231.11;25087;1312;3057248;-67
2022/10/02 09:19:50;;;;;;;6.70;4.30;;;;;;;18.14;88.52;98231.64;25116;1312;3052659;-69
2022/10/02 09:22:57;;;;;;;7.80;3.50;;;;;;;18.13;89.32;98227.61;24486;1312;4003175;-65
2022/10/02 09:26:10;;;;;;;8.10;5.10;;;;;;;18.75;86.65;98219.10;25203;1312;3050309;-62
2022/10/02 09:29:10;;;;;;;8.90;4.40;;;;;;;18.86;85.33;98204.26;25139;1312;3071732;-66
2022/10/02 09:32:04;;;;;;;7.60;5.40;;;;;;;18.56;86.92;98214.09;25171;1312;3049228;-64
2022/10/02 09:34:39;;;;;;;8.40;4.10;;;;;;;18.24;88.06;98211.56;25194;1311;3055189;-69
2022/10/02 09:37:15;;;;;;;3.90;2.30;;;;;;;18.04;89.64;98205.46;25149;1311;3052985;-69
2022/10/02 09:39:54;;;;;;;4.80;3.00;;;;;;;18.42;88.04;98200.51;25155;1312;3054988;-68
2022/10/02 09:42:41;;;;;;;4.50;2.50;;;;;;;18.62;86.28;98193.17;25170;1312;3049622;-68
2022/10/02 09:45:29;;;;;;;6.60;3.70;;;;;;;18.51;86.78;98189.52;25239;1312;3053844;-70
2022/10/02 09:48:29;;;;;;;6.60;4.00;;;;;;;18.18;88.41;98180.79;25162;1311;3053162;-68
2022/10/02 09:51:29;;;;;;;3.20;2.00;;;;;;;18.07;90.03;98179.40;25246;1310;3068499;-66
2022/10/02 09:54:20;;;;;;;4.50;3.00;;;;;;;18.59;87.43;98171.39;25176;1310;3052338;-71
2022/10/02 09:56:59;;;;;;;4.30;3.30;;;;;;;18.60;87.03;98158.84;25194;1310;3052169;-67
2022/10/02 09:59:50;;;;;;;5.90;3.40;;;;;;;18.54;86.87;98149.12;25154;1312;3053062;-67
2022/10/02 10:02:41;;;;;;;6.10;3.50;;;;;;;18.26;88.43;98146.05;25177;1312;3055917;-67
2022/10/02 10:05:32;;;;;;;3.40;2.00;;;;;;;18.21;89.02;98135.68;25173;1310;3052710;-68
2022/10/02 10:08:15;;;;;;;2.50;2.10;;;;;;;18.83;86.71;98119.48;25223;1310;3055335;-69
2022/10/02 10:10:48;;;;;;;6.10;2.90;;;;;;;18.87;84.99;98113.61;25168;1310;3050215;-70
2022/10/02 10:13:32;;;;;;;6.20;3.10;;;;;;;18.91;85.13;98096.57;25189;1312;3026292;-69
2022/10/02 10:16:40;;;;;;;4.90;3.60;;;;;;;18.71;85.05;98078.66;25155;1312;3049076;-68
2022/10/02 10:19:48;;;;;;;4.20;1.60;;;;;;;18.28;87.40;98069.98;25116;1311;3052759;-65
2022/10/02 10:22:32;;;;;;;5.30;2.40;;;;;;;18.90;84.38;98068.21;25209;1309;3052955;-68
2022/10/02 10:25:19;;;;;;;;;;;;;;;18.80;83.02;98058.63;25223;1312;3059002;-69
2022/10/02 10:28:14;;;;;;;4.40;2.90;;;;;;;18.66;83.20;98055.00;25164;1311;3052247;-69
2022/10/02 10:30:52;;;;;;;4.90;2.90;;;;;;;18.31;85.21;98048.89;25220;1310;3053424;-66
2022/10/02 10:33:44;;;;;;;3.80;1.60;;;;;;;18.19;85.36;98045.89;25204;1310;3050425;-67
2022/10/02 10:38:31;;;;;;;2.80;1.80;;;;;;;18.67;83.79;98043.67;25200;1311;3069453;-65
2022/10/02 10:39:42;;;;;;;4.40;2.70;;;;;;;18.97;81.85;98041.23;25132;1311;3049512;-70
2022/10/02 10:42:29;;;;;;;8.30;3.00;;;;;;;18.94;81.18;98032.02;25191;1312;3052752;-70
2022/10/02 10:45:06;;;;;;;5.40;3.10;;;;;;;18.57;83.30;98026.95;25142;1310;3052461;-74
2022/10/02 10:47:56;;;;;;;3.80;1.70;;;;;;;18.38;84.09;98020.76;25154;1310;3056996;-69
2022/10/02 10:50:36;;;;;;;4.50;2.20;;;;;;;18.96;82.24;98010.75;25197;1310;3052403;-70
2022/10/02 10:54:10;;;;;;;3.70;2.10;;;;;;;19.18;81.35;98007.83;25141;1310;3053113;-71
2022/10/02 10:56:48;;;;;;;5.30;2.80;;;;;;;18.91;81.03;97992.80;25164;1311;3050457;-68
2022/10/02 10:59:41;;;;;;;5.60;2.90;;;;;;;18.45;82.35;97991.70;25181;1311;3070617;-65
2022/10/02 11:02:37;;;;;;;4.70;2.90;;;;;;;18.39;82.15;97983.99;25156;1310;3051835;-69
2022/10/02 11:05:36;;;;;;;2.20;1.20;;;;;;;18.28;82.72;97985.15;25181;1309;3051693;-69
2022/10/02 11:08:17;;;;;;;3.60;2.10;;;;;;;18.70;80.49;97977.03;25132;1311;3052847;-67
2022/10/02 11:11:15;;;;;;;3.80;2.60;;;;;;;19.00;78.87;97969.47;25161;1311;3057004;-72
2022/10/02 11:14:09;;;;;;;5.40;3.10;;;;;;;18.67;80.52;97963.02;25113;1312;3052273;-69
2022/10/02 11:16:44;;;;;;;4.90;2.60;;;;;;;18.49;81.60;97955.69;25157;1312;3055910;-69
2022/10/02 11:19:32;;;;;;;6.70;2.90;;;;;;;18.27;83.06;97954.89;25187;1310;3055288;-65
2022/10/02 11:22:07;;;;;;;2.00;1.50;;;;;;;17.94;85.47;97950.02;25055;1312;3069164;-66
2022/10/02 11:24:49;;;;;;;3.40;1.70;;;;;;;18.75;82.38;97934.22;25171;1309;3050346;-63
2022/10/02 11:27:56;;;;;;;4.30;2.90;;;;;;;18.99;81.02;97929.81;25159;1309;3051943;-67
2022/10/02 11:30:52;;;;;;;6.00;3.80;;;;;;;18.94;81.35;97930.60;25185;1310;3055010;-69
2022/10/02 11:34:10;;;;;;;8.20;5.10;;;;;;;18.63;82.73;97928.77;25203;1309;3057163;-68
2022/10/02 11:36:45;;;;;;;10.20;5.80;;;;;;;18.42;84.10;97928.33;25187;1309;3049664;-67
2022/10/02 11:39:41;;;;;;;9.00;3.20;;;;;;;18.12;85.39;97931.13;25163;1310;3057368;-64
2022/10/02 11:42:51;;;;;;;6.80;3.80;;;;;;;18.79;83.68;97925.19;25193;1315;3050524;-70
2022/10/02 11:45:36;;;;;;;8.80;4.10;;;;;;;19.10;81.31;97914.09;25146;1311;3071017;-69
2022/10/02 11:48:20;;;;;;;9.60;4.60;;;;;;;18.97;81.75;97908.83;25114;1312;3049546;-69
2022/10/02 11:51:08;;;;;;;11.00;4.70;;;;;;;18.78;82.62;97910.11;25173;1311;3052727;-70
2022/10/02 11:53:56;;;;;;;9.10;4.80;;;;;;;18.61;82.96;97909.42;25152;1311;3055390;-68
2022/10/02 11:56:55;;;;;;;4.40;2.60;;;;;;;18.49;84.44;97910.55;25150;1311;3056068;-67
2022/10/02 12:00:06;;;;;;;5.00;3.20;;;;;;;19.12;82.17;97895.19;25153;1311;3051382;-66
2022/10/02 12:03:43;;;;;;;7.10;3.40;;;;;;;19.04;81.05;97895.03;25061;1311;3056407;-66
2022/10/02 12:06:28;;;;;;;8.80;3.50;;;;;;;18.98;81.24;97895.08;24878;1312;3050818;-66
2022/10/02 12:09:00;;;;;;;5.50;3.50;;;;;;;18.50;82.52;97893.95;25067;1311;3071343;-66
2022/10/02 12:11:39;;;;;;;5.80;2.30;;;;;;;18.50;83.47;97891.46;25065;1312;3026564;-67
2022/10/02 12:14:44;;;;;;;5.40;2.70;;;;;;;18.97;82.24;97880.19;25144;1312;3051648;-67
2022/10/02 12:17:29;;;;;;;6.10;3.10;;;;;;;19.02;80.76;97871.10;25140;1311;3055429;-67
2022/10/02 12:29:13;;;;;;;4.20;2.00;;;;;;;17.92;85.81;97870.89;25156;1309;3053680;-67
2022/10/02 12:32:12;;;;;;;7.00;3.30;;;;;;;18.30;84.56;97861.32;25133;1309;3026830;-70
2022/10/02 12:34:59;;;;;;;6.90;3.70;;;;;;;18.55;83.14;97854.38;25117;1311;3049078;-68
2022/10/02 12:37:40;;;;;;;6.50;3.80;;;;;;;18.26;83.65;97842.92;25095;1312;3054947;-63
2022/10/02 12:40:26;;;;;;;7.10;3.90;;;;;;;18.04;84.99;97840.42;25216;1311;3054315;-66